Terminal Aerodrome Forecast
Issued by NWS

Home | Current Version | Previous Version | Text Only | Print | Product List | Glossary Off
Versions: 1 2 3 4 5 6 7 8 9 10 11 12

000
FTUS45 KGGW 210520
TAFOLF
TAF
KOLF 210520Z 2106/2206 VRB03KT P6SM FEW110
     FM211800 33013G21KT P6SM SCT100
     FM220200 32010KT P6SM BKN080=

USA.gov is the U.S. government's official web portal to all federal, state and local government web resources and services.